sensor_id;sensor_type;location;lat;lon;timestamp;temperature;humidity
14771;DHT22;7477;45.222;5.688;2024-03-22T00:00:37;14.50;99.90
14771;DHT22;7477;45.222;5.688;2024-03-22T00:03:56;14.30;99.90
14771;DHT22;7477;45.222;5.688;2024-03-22T00:07:18;14.30;99.90
14771;DHT22;7477;45.222;5.688;2024-03-22T00:10:38;14.40;99.90
14771;DHT22;7477;45.222;5.688;2024-03-22T00:13:57;14.20;99.90
14771;DHT22;7477;45.222;5.688;2024-03-22T00:17:17;14.20;99.90
14771;DHT22;7477;45.222;5.688;2024-03-22T00:20:37;14.10;99.90
14771;DHT22;7477;45.222;5.688;2024-03-22T00:23:57;14.20;99.90
14771;DHT22;7477;45.222;5.688;2024-03-22T00:27:17;14.10;99.90
14771;DHT22;7477;45.222;5.688;2024-03-22T00:30:36;14.00;99.90
14771;DHT22;7477;45.222;5.688;2024-03-22T00:33:55;13.90;99.90
14771;DHT22;7477;45.222;5.688;2024-03-22T00:37:14;13.90;99.90
14771;DHT22;7477;45.222;5.688;2024-03-22T00:40:33;13.70;99.90
14771;DHT22;7477;45.222;5.688;2024-03-22T00:43:52;13.70;99.90
14771;DHT22;7477;45.222;5.688;2024-03-22T00:47:12;13.60;99.90
14771;DHT22;7477;45.222;5.688;2024-03-22T00:50:32;13.50;99.90
14771;DHT22;7477;45.222;5.688;2024-03-22T00:53:51;13.50;99.90
14771;DHT22;7477;45.222;5.688;2024-03-22T00:57:10;13.50;99.90
14771;DHT22;7477;45.222;5.688;2024-03-22T01:00:31;13.40;99.90
14771;DHT22;7477;45.222;5.688;2024-03-22T01:03:51;13.40;99.90
14771;DHT22;7477;45.222;5.688;2024-03-22T01:07:10;13.30;99.90
14771;DHT22;7477;45.222;5.688;2024-03-22T01:10:29;13.20;99.90
14771;DHT22;7477;45.222;5.688;2024-03-22T01:13:49;13.20;99.90
14771;DHT22;7477;45.222;5.688;2024-03-22T01:17:08;13.20;99.90
14771;DHT22;7477;45.222;5.688;2024-03-22T01:20:27;13.20;99.90
14771;DHT22;7477;45.222;5.688;2024-03-22T01:23:46;13.20;99.90
14771;DHT22;7477;45.222;5.688;2024-03-22T01:27:05;13.10;99.90
14771;DHT22;7477;45.222;5.688;2024-03-22T01:30:24;13.00;99.90
14771;DHT22;7477;45.222;5.688;2024-03-22T01:33:47;13.00;99.90
14771;DHT22;7477;45.222;5.688;2024-03-22T01:37:06;13.10;99.90
14771;DHT22;7477;45.222;5.688;2024-03-22T01:40:26;13.10;99.90
14771;DHT22;7477;45.222;5.688;2024-03-22T01:43:45;13.00;99.90
14771;DHT22;7477;45.222;5.688;2024-03-22T01:47:04;13.00;99.90
14771;DHT22;7477;45.222;5.688;2024-03-22T01:50:24;12.90;99.90
14771;DHT22;7477;45.222;5.688;2024-03-22T01:53:43;13.00;99.90
14771;DHT22;7477;45.222;5.688;2024-03-22T01:57:02;12.90;99.90
14771;DHT22;7477;45.222;5.688;2024-03-22T02:00:21;12.90;99.90
14771;DHT22;7477;45.222;5.688;2024-03-22T02:03:40;12.90;99.90
14771;DHT22;7477;45.222;5.688;2024-03-22T02:06:59;12.80;99.90
14771;DHT22;7477;45.222;5.688;2024-03-22T02:10:19;12.80;99.90
14771;DHT22;7477;45.222;5.688;2024-03-22T02:13:38;12.80;99.90
14771;DHT22;7477;45.222;5.688;2024-03-22T02:16:57;12.80;99.90
14771;DHT22;7477;45.222;5.688;2024-03-22T02:20:17;12.80;99.90
14771;DHT22;7477;45.222;5.688;2024-03-22T02:23:37;12.90;99.90
14771;DHT22;7477;45.222;5.688;2024-03-22T02:26:57;12.90;99.90
14771;DHT22;7477;45.222;5.688;2024-03-22T02:30:19;12.80;99.90
14771;DHT22;7477;45.222;5.688;2024-03-22T02:33:38;12.80;99.90
14771;DHT22;7477;45.222;5.688;2024-03-22T02:36:57;12.80;99.90
14771;DHT22;7477;45.222;5.688;2024-03-22T02:40:16;12.80;99.90
14771;DHT22;7477;45.222;5.688;2024-03-22T02:43:35;12.80;99.90
14771;DHT22;7477;45.222;5.688;2024-03-22T02:46:55;12.80;99.90
14771;DHT22;7477;45.222;5.688;2024-03-22T02:50:14;12.90;99.90
14771;DHT22;7477;45.222;5.688;2024-03-22T02:53:33;12.80;99.90
14771;DHT22;7477;45.222;5.688;2024-03-22T02:56:52;12.70;99.90
14771;DHT22;7477;45.222;5.688;2024-03-22T03:00:12;12.70;99.90
14771;DHT22;7477;45.222;5.688;2024-03-22T03:03:31;12.60;99.90
14771;DHT22;7477;45.222;5.688;2024-03-22T03:06:51;12.60;99.90
14771;DHT22;7477;45.222;5.688;2024-03-22T03:10:10;12.50;99.90
14771;DHT22;7477;45.222;5.688;2024-03-22T03:13:29;12.60;99.90
14771;DHT22;7477;45.222;5.688;2024-03-22T03:16:48;12.60;99.90
14771;DHT22;7477;45.222;5.688;2024-03-22T03:20:08;12.50;99.90
14771;DHT22;7477;45.222;5.688;2024-03-22T03:23:29;12.40;99.90
14771;DHT22;7477;45.222;5.688;2024-03-22T03:26:48;12.40;99.90
14771;DHT22;7477;45.222;5.688;2024-03-22T03:30:07;12.40;99.90
14771;DHT22;7477;45.222;5.688;2024-03-22T03:33:27;12.40;99.90
14771;DHT22;7477;45.222;5.688;2024-03-22T03:36:46;12.40;99.90
14771;DHT22;7477;45.222;5.688;2024-03-22T03:40:06;12.40;99.90
14771;DHT22;7477;45.222;5.688;2024-03-22T03:43:26;12.30;99.90
14771;DHT22;7477;45.222;5.688;2024-03-22T03:46:45;12.30;99.90
14771;DHT22;7477;45.222;5.688;2024-03-22T03:50:05;12.30;99.90
14771;DHT22;7477;45.222;5.688;2024-03-22T03:53:24;12.30;99.90
14771;DHT22;7477;45.222;5.688;2024-03-22T03:56:43;12.20;99.90
14771;DHT22;7477;45.222;5.688;2024-03-22T04:00:03;12.30;99.90
14771;DHT22;7477;45.222;5.688;2024-03-22T04:03:23;12.20;99.90
14771;DHT22;7477;45.222;5.688;2024-03-22T04:06:44;12.20;99.90
14771;DHT22;7477;45.222;5.688;2024-03-22T04:10:03;12.20;99.90
14771;DHT22;7477;45.222;5.688;2024-03-22T04:13:27;12.20;99.90
14771;DHT22;7477;45.222;5.688;2024-03-22T04:16:46;12.30;99.90
14771;DHT22;7477;45.222;5.688;2024-03-22T04:20:05;12.20;99.90
14771;DHT22;7477;45.222;5.688;2024-03-22T04:23:26;12.20;99.90
14771;DHT22;7477;45.222;5.688;2024-03-22T04:26:45;12.30;99.90
14771;DHT22;7477;45.222;5.688;2024-03-22T04:30:05;12.30;99.90
14771;DHT22;7477;45.222;5.688;2024-03-22T04:33:24;12.30;99.90
14771;DHT22;7477;45.222;5.688;2024-03-22T04:36:44;12.40;99.90
14771;DHT22;7477;45.222;5.688;2024-03-22T04:40:04;12.50;99.90
14771;DHT22;7477;45.222;5.688;2024-03-22T04:43:23;12.60;99.90
14771;DHT22;7477;45.222;5.688;2024-03-22T04:46:43;12.60;99.90
14771;DHT22;7477;45.222;5.688;2024-03-22T04:50:03;12.60;99.90
14771;DHT22;7477;45.222;5.688;2024-03-22T04:53:23;12.60;99.90
14771;DHT22;7477;45.222;5.688;2024-03-22T04:56:43;12.60;99.90
14771;DHT22;7477;45.222;5.688;2024-03-22T05:00:02;12.50;99.90
14771;DHT22;7477;45.222;5.688;2024-03-22T05:03:22;12.60;99.90
14771;DHT22;7477;45.222;5.688;2024-03-22T05:06:41;12.60;99.90
14771;DHT22;7477;45.222;5.688;2024-03-22T05:10:01;12.40;99.90
14771;DHT22;7477;45.222;5.688;2024-03-22T05:13:20;12.30;99.90
14771;DHT22;7477;45.222;5.688;2024-03-22T05:16:39;12.30;99.90
14771;DHT22;7477;45.222;5.688;2024-03-22T05:19:59;12.30;99.90
14771;DHT22;7477;45.222;5.688;2024-03-22T05:23:18;12.30;99.90
14771;DHT22;7477;45.222;5.688;2024-03-22T05:26:37;12.20;99.90
14771;DHT22;7477;45.222;5.688;2024-03-22T05:29:56;12.20;99.90
14771;DHT22;7477;45.222;5.688;2024-03-22T05:33:15;12.10;99.90
14771;DHT22;7477;45.222;5.688;2024-03-22T05:36:35;12.00;99.90
14771;DHT22;7477;45.222;5.688;2024-03-22T05:39:54;12.00;99.90
14771;DHT22;7477;45.222;5.688;2024-03-22T05:43:14;12.00;99.90
14771;DHT22;7477;45.222;5.688;2024-03-22T05:46:33;12.10;99.90
14771;DHT22;7477;45.222;5.688;2024-03-22T05:49:53;12.10;99.90
14771;DHT22;7477;45.222;5.688;2024-03-22T05:53:12;12.10;99.90
14771;DHT22;7477;45.222;5.688;2024-03-22T05:56:31;12.00;99.90
14771;DHT22;7477;45.222;5.688;2024-03-22T05:59:50;12.10;99.90
14771;DHT22;7477;45.222;5.688;2024-03-22T06:03:09;12.20;99.90
14771;DHT22;7477;45.222;5.688;2024-03-22T06:06:28;12.10;99.90
14771;DHT22;7477;45.222;5.688;2024-03-22T06:09:48;12.20;99.90
14771;DHT22;7477;45.222;5.688;2024-03-22T06:13:07;12.20;99.90
14771;DHT22;7477;45.222;5.688;2024-03-22T06:16:27;12.20;99.90
14771;DHT22;7477;45.222;5.688;2024-03-22T06:19:46;12.20;99.90
14771;DHT22;7477;45.222;5.688;2024-03-22T06:23:05;12.30;99.90
14771;DHT22;7477;45.222;5.688;2024-03-22T06:26:24;12.40;99.90
14771;DHT22;7477;45.222;5.688;2024-03-22T06:29:43;12.50;99.90
14771;DHT22;7477;45.222;5.688;2024-03-22T06:33:02;12.60;99.90
14771;DHT22;7477;45.222;5.688;2024-03-22T06:36:23;12.60;99.90
14771;DHT22;7477;45.222;5.688;2024-03-22T06:39:42;12.70;99.90
14771;DHT22;7477;45.222;5.688;2024-03-22T06:43:01;12.80;99.90
14771;DHT22;7477;45.222;5.688;2024-03-22T06:46:21;12.80;99.90
14771;DHT22;7477;45.222;5.688;2024-03-22T06:49:40;12.90;99.90
14771;DHT22;7477;45.222;5.688;2024-03-22T06:52:59;12.80;99.90
14771;DHT22;7477;45.222;5.688;2024-03-22T06:56:18;12.80;99.90
14771;DHT22;7477;45.222;5.688;2024-03-22T06:59:38;12.80;99.90
14771;DHT22;7477;45.222;5.688;2024-03-22T07:02:57;12.90;99.90
14771;DHT22;7477;45.222;5.688;2024-03-22T07:06:16;12.80;99.90
14771;DHT22;7477;45.222;5.688;2024-03-22T07:09:35;12.80;99.90
14771;DHT22;7477;45.222;5.688;2024-03-22T07:12:55;12.80;99.90
14771;DHT22;7477;45.222;5.688;2024-03-22T07:16:14;12.70;99.90
14771;DHT22;7477;45.222;5.688;2024-03-22T07:19:33;12.70;99.90
14771;DHT22;7477;45.222;5.688;2024-03-22T07:22:54;12.60;99.90
14771;DHT22;7477;45.222;5.688;2024-03-22T07:26:13;12.60;99.90
14771;DHT22;7477;45.222;5.688;2024-03-22T07:29:32;12.60;99.90
14771;DHT22;7477;45.222;5.688;2024-03-22T07:32:54;12.60;99.90
14771;DHT22;7477;45.222;5.688;2024-03-22T07:36:15;12.60;99.90
14771;DHT22;7477;45.222;5.688;2024-03-22T07:39:36;12.60;99.90
14771;DHT22;7477;45.222;5.688;2024-03-22T07:42:55;12.60;99.90
14771;DHT22;7477;45.222;5.688;2024-03-22T07:46:14;12.60;99.90
14771;DHT22;7477;45.222;5.688;2024-03-22T07:49:33;12.70;99.90
14771;DHT22;7477;45.222;5.688;2024-03-22T07:52:53;12.70;99.90
14771;DHT22;7477;45.222;5.688;2024-03-22T07:56:13;12.70;99.90
14771;DHT22;7477;45.222;5.688;2024-03-22T07:59:32;12.70;99.90
14771;DHT22;7477;45.222;5.688;2024-03-22T08:02:52;12.80;99.90
14771;DHT22;7477;45.222;5.688;2024-03-22T08:06:11;12.90;99.90
14771;DHT22;7477;45.222;5.688;2024-03-22T08:09:30;13.00;99.90
14771;DHT22;7477;45.222;5.688;2024-03-22T08:12:49;13.10;99.90
14771;DHT22;7477;45.222;5.688;2024-03-22T08:16:08;13.20;99.90
14771;DHT22;7477;45.222;5.688;2024-03-22T08:19:28;13.30;99.90
14771;DHT22;7477;45.222;5.688;2024-03-22T08:22:47;13.40;99.90
14771;DHT22;7477;45.222;5.688;2024-03-22T08:26:06;13.50;99.90
14771;DHT22;7477;45.222;5.688;2024-03-22T08:29:26;13.60;99.90
14771;DHT22;7477;45.222;5.688;2024-03-22T08:32:45;13.80;99.90
14771;DHT22;7477;45.222;5.688;2024-03-22T08:36:04;13.90;99.90
14771;DHT22;7477;45.222;5.688;2024-03-22T08:39:24;14.10;99.90
14771;DHT22;7477;45.222;5.688;2024-03-22T08:42:43;14.40;99.90
14771;DHT22;7477;45.222;5.688;2024-03-22T08:46:02;14.30;99.90
14771;DHT22;7477;45.222;5.688;2024-03-22T08:49:22;14.20;99.90
14771;DHT22;7477;45.222;5.688;2024-03-22T08:52:43;14.30;99.90
14771;DHT22;7477;45.222;5.688;2024-03-22T08:56:02;14.60;99.90
14771;DHT22;7477;45.222;5.688;2024-03-22T08:59:22;15.10;99.90
14771;DHT22;7477;45.222;5.688;2024-03-22T09:02:43;16.30;99.90
14771;DHT22;7477;45.222;5.688;2024-03-22T09:06:02;16.70;99.90
14771;DHT22;7477;45.222;5.688;2024-03-22T09:09:22;16.30;99.90
14771;DHT22;7477;45.222;5.688;2024-03-22T09:12:41;15.90;99.90
14771;DHT22;7477;45.222;5.688;2024-03-22T09:16:01;16.00;99.90
14771;DHT22;7477;45.222;5.688;2024-03-22T09:19:20;15.40;99.90
14771;DHT22;7477;45.222;5.688;2024-03-22T09:22:40;15.80;99.90
14771;DHT22;7477;45.222;5.688;2024-03-22T09:25:59;15.70;99.90
14771;DHT22;7477;45.222;5.688;2024-03-22T09:29:19;15.80;99.90
14771;DHT22;7477;45.222;5.688;2024-03-22T09:32:38;15.40;99.90
14771;DHT22;7477;45.222;5.688;2024-03-22T09:35:58;15.90;99.90
14771;DHT22;7477;45.222;5.688;2024-03-22T09:39:17;15.80;99.90
14771;DHT22;7477;45.222;5.688;2024-03-22T09:42:38;16.10;99.90
14771;DHT22;7477;45.222;5.688;2024-03-22T09:46:01;16.40;99.90
14771;DHT22;7477;45.222;5.688;2024-03-22T09:49:21;15.90;99.90
14771;DHT22;7477;45.222;5.688;2024-03-22T09:52:43;15.60;99.90
14771;DHT22;7477;45.222;5.688;2024-03-22T09:56:03;15.70;99.90
14771;DHT22;7477;45.222;5.688;2024-03-22T09:59:23;16.10;99.90
14771;DHT22;7477;45.222;5.688;2024-03-22T10:02:42;16.60;99.90
14771;DHT22;7477;45.222;5.688;2024-03-22T10:06:01;16.20;99.90
14771;DHT22;7477;45.222;5.688;2024-03-22T10:09:31;16.40;99.90
14771;DHT22;7477;45.222;5.688;2024-03-22T10:12:51;16.40;99.90
14771;DHT22;7477;45.222;5.688;2024-03-22T10:16:12;15.80;99.90
14771;DHT22;7477;45.222;5.688;2024-03-22T10:19:31;15.80;99.90
14771;DHT22;7477;45.222;5.688;2024-03-22T10:22:59;15.70;99.90
14771;DHT22;7477;45.222;5.688;2024-03-22T10:26:18;15.60;99.90
14771;DHT22;7477;45.222;5.688;2024-03-22T10:29:38;15.50;99.90
14771;DHT22;7477;45.222;5.688;2024-03-22T10:32:57;15.60;99.90
14771;DHT22;7477;45.222;5.688;2024-03-22T10:36:18;15.60;99.90
14771;DHT22;7477;45.222;5.688;2024-03-22T10:39:40;15.60;99.90
14771;DHT22;7477;45.222;5.688;2024-03-22T10:43:00;15.70;99.90
14771;DHT22;7477;45.222;5.688;2024-03-22T10:46:27;15.70;99.90
14771;DHT22;7477;45.222;5.688;2024-03-22T10:49:48;15.80;99.90
14771;DHT22;7477;45.222;5.688;2024-03-22T10:53:16;15.80;99.90
14771;DHT22;7477;45.222;5.688;2024-03-22T10:56:38;15.80;99.90
14771;DHT22;7477;45.222;5.688;2024-03-22T10:59:57;15.90;99.90
14771;DHT22;7477;45.222;5.688;2024-03-22T11:03:20;15.90;99.90
14771;DHT22;7477;45.222;5.688;2024-03-22T11:06:39;15.80;99.90
14771;DHT22;7477;45.222;5.688;2024-03-22T11:10:02;15.90;99.90
14771;DHT22;7477;45.222;5.688;2024-03-22T11:13:25;16.00;99.90
14771;DHT22;7477;45.222;5.688;2024-03-22T11:16:45;16.20;99.90
14771;DHT22;7477;45.222;5.688;2024-03-22T11:20:04;16.10;99.90
14771;DHT22;7477;45.222;5.688;2024-03-22T11:23:25;16.20;99.90
14771;DHT22;7477;45.222;5.688;2024-03-22T11:26:44;16.20;99.90
14771;DHT22;7477;45.222;5.688;2024-03-22T11:30:06;16.20;99.90
14771;DHT22;7477;45.222;5.688;2024-03-22T11:33:26;16.20;99.90
14771;DHT22;7477;45.222;5.688;2024-03-22T11:36:46;16.20;99.90
14771;DHT22;7477;45.222;5.688;2024-03-22T11:40:08;16.30;99.90
14771;DHT22;7477;45.222;5.688;2024-03-22T11:43:29;16.40;99.90
14771;DHT22;7477;45.222;5.688;2024-03-22T11:46:49;16.50;99.90
14771;DHT22;7477;45.222;5.688;2024-03-22T11:50:08;16.40;99.90
14771;DHT22;7477;45.222;5.688;2024-03-22T11:53:28;16.40;99.90
14771;DHT22;7477;45.222;5.688;2024-03-22T11:56:49;16.40;99.90
14771;DHT22;7477;45.222;5.688;2024-03-22T12:00:09;16.30;99.90
14771;DHT22;7477;45.222;5.688;2024-03-22T12:03:28;16.40;99.90
14771;DHT22;7477;45.222;5.688;2024-03-22T12:06:48;16.50;99.90
14771;DHT22;7477;45.222;5.688;2024-03-22T12:10:07;16.40;99.90
14771;DHT22;7477;45.222;5.688;2024-03-22T12:13:27;16.50;99.90
14771;DHT22;7477;45.222;5.688;2024-03-22T12:16:46;16.60;99.90
14771;DHT22;7477;45.222;5.688;2024-03-22T12:20:08;16.60;99.90
14771;DHT22;7477;45.222;5.688;2024-03-22T12:23:28;16.70;99.90
14771;DHT22;7477;45.222;5.688;2024-03-22T12:26:47;16.70;99.90
14771;DHT22;7477;45.222;5.688;2024-03-22T12:30:07;17.00;99.90
14771;DHT22;7477;45.222;5.688;2024-03-22T12:33:27;16.80;99.90
14771;DHT22;7477;45.222;5.688;2024-03-22T12:36:46;17.10;99.90
14771;DHT22;7477;45.222;5.688;2024-03-22T12:40:05;17.70;95.80
14771;DHT22;7477;45.222;5.688;2024-03-22T12:43:27;17.50;99.40
14771;DHT22;7477;45.222;5.688;2024-03-22T12:46:47;17.10;99.90
14771;DHT22;7477;45.222;5.688;2024-03-22T12:50:07;17.10;99.40
14771;DHT22;7477;45.222;5.688;2024-03-22T12:53:26;16.90;99.90
14771;DHT22;7477;45.222;5.688;2024-03-22T12:56:45;17.20;98.30
14771;DHT22;7477;45.222;5.688;2024-03-22T13:00:06;17.60;93.60
14771;DHT22;7477;45.222;5.688;2024-03-22T13:03:34;17.90;97.20
14771;DHT22;7477;45.222;5.688;2024-03-22T13:06:55;18.10;92.30
14771;DHT22;7477;45.222;5.688;2024-03-22T13:10:14;18.10;92.10
14771;DHT22;7477;45.222;5.688;2024-03-22T13:13:37;17.60;96.20
14771;DHT22;7477;45.222;5.688;2024-03-22T13:16:56;17.20;99.40
14771;DHT22;7477;45.222;5.688;2024-03-22T13:20:16;17.10;99.90
14771;DHT22;7477;45.222;5.688;2024-03-22T13:23:37;17.10;99.90
14771;DHT22;7477;45.222;5.688;2024-03-22T13:26:56;17.00;99.90
14771;DHT22;7477;45.222;5.688;2024-03-22T13:30:15;17.00;99.90
14771;DHT22;7477;45.222;5.688;2024-03-22T13:33:35;17.00;99.90
14771;DHT22;7477;45.222;5.688;2024-03-22T13:36:54;17.20;99.90
14771;DHT22;7477;45.222;5.688;2024-03-22T13:40:13;17.30;99.90
14771;DHT22;7477;45.222;5.688;2024-03-22T13:43:34;17.40;99.90
14771;DHT22;7477;45.222;5.688;2024-03-22T13:46:55;17.40;99.90
14771;DHT22;7477;45.222;5.688;2024-03-22T13:50:14;17.40;99.90
14771;DHT22;7477;45.222;5.688;2024-03-22T13:53:34;17.40;99.90
14771;DHT22;7477;45.222;5.688;2024-03-22T13:56:53;17.40;99.90
14771;DHT22;7477;45.222;5.688;2024-03-22T14:00:12;17.50;99.90
14771;DHT22;7477;45.222;5.688;2024-03-22T14:03:33;17.50;99.90
14771;DHT22;7477;45.222;5.688;2024-03-22T14:06:53;17.60;99.90
14771;DHT22;7477;45.222;5.688;2024-03-22T14:10:13;17.70;99.90
14771;DHT22;7477;45.222;5.688;2024-03-22T14:13:35;17.60;99.90
14771;DHT22;7477;45.222;5.688;2024-03-22T14:16:55;17.70;99.90
14771;DHT22;7477;45.222;5.688;2024-03-22T14:20:14;17.70;99.90
14771;DHT22;7477;45.222;5.688;2024-03-22T14:23:34;17.60;99.90
14771;DHT22;7477;45.222;5.688;2024-03-22T14:26:53;17.80;99.90
14771;DHT22;7477;45.222;5.688;2024-03-22T14:30:12;17.80;99.90
14771;DHT22;7477;45.222;5.688;2024-03-22T14:33:37;17.80;99.90
14771;DHT22;7477;45.222;5.688;2024-03-22T14:36:59;17.80;99.90
14771;DHT22;7477;45.222;5.688;2024-03-22T14:40:18;18.00;99.90
14771;DHT22;7477;45.222;5.688;2024-03-22T14:43:37;17.90;99.90
14771;DHT22;7477;45.222;5.688;2024-03-22T14:46:57;17.90;99.90
14771;DHT22;7477;45.222;5.688;2024-03-22T14:50:17;17.90;99.90
14771;DHT22;7477;45.222;5.688;2024-03-22T14:53:36;17.90;99.90
14771;DHT22;7477;45.222;5.688;2024-03-22T14:56:56;17.90;99.90
14771;DHT22;7477;45.222;5.688;2024-03-22T15:00:16;18.00;99.90
14771;DHT22;7477;45.222;5.688;2024-03-22T15:03:35;18.10;99.90
14771;DHT22;7477;45.222;5.688;2024-03-22T15:06:55;17.90;99.90
14771;DHT22;7477;45.222;5.688;2024-03-22T15:10:14;18.00;99.90
14771;DHT22;7477;45.222;5.688;2024-03-22T15:13:33;18.10;99.90
14771;DHT22;7477;45.222;5.688;2024-03-22T15:16:52;18.10;99.90
14771;DHT22;7477;45.222;5.688;2024-03-22T15:20:12;18.20;99.90
14771;DHT22;7477;45.222;5.688;2024-03-22T15:23:31;18.20;99.90
14771;DHT22;7477;45.222;5.688;2024-03-22T15:26:50;18.30;99.90
14771;DHT22;7477;45.222;5.688;2024-03-22T15:30:10;18.30;99.90
14771;DHT22;7477;45.222;5.688;2024-03-22T15:33:30;18.30;99.90
14771;DHT22;7477;45.222;5.688;2024-03-22T15:36:49;18.30;99.90
14771;DHT22;7477;45.222;5.688;2024-03-22T15:40:09;18.30;99.90
14771;DHT22;7477;45.222;5.688;2024-03-22T15:43:29;18.30;99.90
14771;DHT22;7477;45.222;5.688;2024-03-22T15:46:48;18.30;99.90
14771;DHT22;7477;45.222;5.688;2024-03-22T15:50:08;18.30;99.90
14771;DHT22;7477;45.222;5.688;2024-03-22T15:53:29;18.30;99.90
14771;DHT22;7477;45.222;5.688;2024-03-22T15:56:48;18.40;99.90
14771;DHT22;7477;45.222;5.688;2024-03-22T16:00:08;18.50;99.60
14771;DHT22;7477;45.222;5.688;2024-03-22T16:03:30;18.50;99.90
14771;DHT22;7477;45.222;5.688;2024-03-22T16:06:50;18.50;99.70
14771;DHT22;7477;45.222;5.688;2024-03-22T16:10:10;18.50;99.70
14771;DHT22;7477;45.222;5.688;2024-03-22T16:13:30;18.80;98.80
14771;DHT22;7477;45.222;5.688;2024-03-22T16:16:49;18.90;98.00
14771;DHT22;7477;45.222;5.688;2024-03-22T16:20:08;19.60;96.40
14771;DHT22;7477;45.222;5.688;2024-03-22T16:23:31;19.10;97.80
14771;DHT22;7477;45.222;5.688;2024-03-22T16:26:50;20.00;94.10
14771;DHT22;7477;45.222;5.688;2024-03-22T16:30:10;19.90;94.50
14771;DHT22;7477;45.222;5.688;2024-03-22T16:33:29;19.00;97.30
14771;DHT22;7477;45.222;5.688;2024-03-22T16:36:49;18.90;96.40
14771;DHT22;7477;45.222;5.688;2024-03-22T16:40:09;19.00;97.10
14771;DHT22;7477;45.222;5.688;2024-03-22T16:43:29;19.30;96.50
14771;DHT22;7477;45.222;5.688;2024-03-22T16:46:48;18.80;96.10
14771;DHT22;7477;45.222;5.688;2024-03-22T16:50:11;18.80;97.30
14771;DHT22;7477;45.222;5.688;2024-03-22T16:53:30;18.70;98.10
14771;DHT22;7477;45.222;5.688;2024-03-22T16:56:49;18.70;98.20
14771;DHT22;7477;45.222;5.688;2024-03-22T17:00:11;18.70;98.30
14771;DHT22;7477;45.222;5.688;2024-03-22T17:03:30;18.80;97.40
14771;DHT22;7477;45.222;5.688;2024-03-22T17:06:49;18.80;97.90
14771;DHT22;7477;45.222;5.688;2024-03-22T17:10:08;18.90;97.30
14771;DHT22;7477;45.222;5.688;2024-03-22T17:13:28;18.90;97.30
14771;DHT22;7477;45.222;5.688;2024-03-22T17:16:47;18.80;97.70
14771;DHT22;7477;45.222;5.688;2024-03-22T17:20:10;18.70;98.30
14771;DHT22;7477;45.222;5.688;2024-03-22T17:23:33;18.70;98.40
14771;DHT22;7477;45.222;5.688;2024-03-22T17:26:52;18.80;98.20
14771;DHT22;7477;45.222;5.688;2024-03-22T17:30:11;18.70;98.40
14771;DHT22;7477;45.222;5.688;2024-03-22T17:33:31;18.70;98.50
14771;DHT22;7477;45.222;5.688;2024-03-22T17:36:53;18.70;98.60
14771;DHT22;7477;45.222;5.688;2024-03-22T17:40:12;18.70;98.50
14771;DHT22;7477;45.222;5.688;2024-03-22T17:43:34;18.70;98.60
14771;DHT22;7477;45.222;5.688;2024-03-22T17:46:53;18.70;98.50
14771;DHT22;7477;45.222;5.688;2024-03-22T17:50:12;18.70;98.80
14771;DHT22;7477;45.222;5.688;2024-03-22T17:53:32;18.70;98.30
14771;DHT22;7477;45.222;5.688;2024-03-22T17:56:51;18.70;98.70
14771;DHT22;7477;45.222;5.688;2024-03-22T18:00:11;18.70;98.80
14771;DHT22;7477;45.222;5.688;2024-03-22T18:03:30;18.70;98.40
14771;DHT22;7477;45.222;5.688;2024-03-22T18:06:49;18.70;97.70
14771;DHT22;7477;45.222;5.688;2024-03-22T18:10:08;18.70;98.10
14771;DHT22;7477;45.222;5.688;2024-03-22T18:13:28;18.70;97.10
14771;DHT22;7477;45.222;5.688;2024-03-22T18:16:48;18.70;97.20
14771;DHT22;7477;45.222;5.688;2024-03-22T18:20:09;18.70;97.20
14771;DHT22;7477;45.222;5.688;2024-03-22T18:23:28;18.70;95.20
14771;DHT22;7477;45.222;5.688;2024-03-22T18:26:49;18.50;93.50
14771;DHT22;7477;45.222;5.688;2024-03-22T18:30:09;18.40;93.60
14771;DHT22;7477;45.222;5.688;2024-03-22T18:33:28;18.40;92.90
14771;DHT22;7477;45.222;5.688;2024-03-22T18:36:54;18.40;92.40
14771;DHT22;7477;45.222;5.688;2024-03-22T18:40:14;18.50;93.00
14771;DHT22;7477;45.222;5.688;2024-03-22T18:43:33;18.50;93.30
14771;DHT22;7477;45.222;5.688;2024-03-22T18:46:53;18.50;95.00
14771;DHT22;7477;45.222;5.688;2024-03-22T18:50:13;18.50;94.70
14771;DHT22;7477;45.222;5.688;2024-03-22T18:53:33;18.40;92.60
14771;DHT22;7477;45.222;5.688;2024-03-22T18:56:53;18.30;92.40
14771;DHT22;7477;45.222;5.688;2024-03-22T19:00:13;18.20;92.00
14771;DHT22;7477;45.222;5.688;2024-03-22T19:03:32;18.20;93.70
14771;DHT22;7477;45.222;5.688;2024-03-22T19:06:52;18.20;93.10
14771;DHT22;7477;45.222;5.688;2024-03-22T19:10:11;18.20;92.50
14771;DHT22;7477;45.222;5.688;2024-03-22T19:13:32;18.00;91.20
14771;DHT22;7477;45.222;5.688;2024-03-22T19:16:51;17.70;90.60
14771;DHT22;7477;45.222;5.688;2024-03-22T19:20:11;17.50;90.60
14771;DHT22;7477;45.222;5.688;2024-03-22T19:23:30;17.50;90.90
14771;DHT22;7477;45.222;5.688;2024-03-22T19:26:50;17.60;92.40
14771;DHT22;7477;45.222;5.688;2024-03-22T19:30:10;17.70;90.80
14771;DHT22;7477;45.222;5.688;2024-03-22T19:33:30;17.60;88.90
14771;DHT22;7477;45.222;5.688;2024-03-22T19:36:50;17.40;89.80
14771;DHT22;7477;45.222;5.688;2024-03-22T19:40:09;17.30;90.40
14771;DHT22;7477;45.222;5.688;2024-03-22T19:43:29;17.20;89.70
14771;DHT22;7477;45.222;5.688;2024-03-22T19:46:54;17.30;90.00
14771;DHT22;7477;45.222;5.688;2024-03-22T19:50:13;17.10;89.70
14771;DHT22;7477;45.222;5.688;2024-03-22T19:53:33;16.90;90.40
14771;DHT22;7477;45.222;5.688;2024-03-22T19:56:52;17.20;91.00
14771;DHT22;7477;45.222;5.688;2024-03-22T20:00:11;17.20;88.10
14771;DHT22;7477;45.222;5.688;2024-03-22T20:03:31;17.30;87.80
14771;DHT22;7477;45.222;5.688;2024-03-22T20:06:50;17.10;87.50
14771;DHT22;7477;45.222;5.688;2024-03-22T20:10:10;16.90;90.10
14771;DHT22;7477;45.222;5.688;2024-03-22T20:13:29;16.70;90.00
14771;DHT22;7477;45.222;5.688;2024-03-22T20:16:49;16.50;90.00
14771;DHT22;7477;45.222;5.688;2024-03-22T20:20:08;16.50;89.80
14771;DHT22;7477;45.222;5.688;2024-03-22T20:23:28;16.40;90.70
14771;DHT22;7477;45.222;5.688;2024-03-22T20:26:47;16.20;91.50
14771;DHT22;7477;45.222;5.688;2024-03-22T20:30:06;16.00;92.30
14771;DHT22;7477;45.222;5.688;2024-03-22T20:33:26;16.00;92.30
14771;DHT22;7477;45.222;5.688;2024-03-22T20:36:45;15.90;92.60
